Burkemont, North Carolina
Current Conditions -  °F | °C
As of 7:35 PM on Sunday 21 Dec 2014 (Local Time) from KMRN Reporting Station
Overcast Overcast  
Wind Chill: 43°   Ceiling: 1900
Heat Index: 43°   Visibility: 7mi
Dew Point: 38°   Wind: 0mph
Humidity: 83%   Direction: NA
Pressure: 30.24"   Gusts: NA
Location:  35.7567°N, 81.7518°W
Report Text: KMRN 220035Z AUTO 00000KT 7SM OVC019 06/04 A3024 RMK AO2 T00630036
Loading
Personal Weather Stations






























Interactive Weather Map New forecast layout! Learn more

10-Day Weather Forecast

Advertisements
Track Severe Weather on mobile